createdAt,value
2017-01-06T00:00:33.792Z,-1.35
2017-01-06T00:01:48.253Z,-1.4
2017-01-06T00:03:01.855Z,-1.4
2017-01-06T00:04:15.453Z,-1.45
2017-01-06T00:05:29.339Z,-1.39
2017-01-06T00:06:42.958Z,-1.32
2017-01-06T00:07:56.700Z,-1.48
2017-01-06T00:09:10.315Z,-1.36
2017-01-06T00:10:23.975Z,-1.43
2017-01-06T00:11:37.661Z,-1.43
2017-01-06T00:15:02.298Z,-1.45
2017-01-06T00:19:13.596Z,-1.58
2017-01-06T00:20:27.187Z,-1.51
2017-01-06T00:21:40.786Z,-1.63
2017-01-06T00:22:54.411Z,-1.66
2017-01-06T00:24:08.762Z,-1.63
2017-01-06T00:25:22.370Z,-1.58
2017-01-06T00:26:36.606Z,-1.74
2017-01-06T00:27:50.657Z,-1.63
2017-01-06T00:29:04.299Z,-1.74
2017-01-06T00:30:18.550Z,-1.72
2017-01-06T00:31:32.601Z,-1.84
2017-01-06T00:32:46.167Z,-1.82
2017-01-06T00:33:59.777Z,-1.87
2017-01-06T00:35:14.635Z,-1.84
2017-01-06T00:36:28.281Z,-1.87
2017-01-06T00:37:41.880Z,-1.87
2017-01-06T00:38:55.881Z,-1.93
2017-01-06T00:40:09.970Z,-1.94
2017-01-06T00:41:23.639Z,-1.93
2017-01-06T00:42:37.242Z,-1.87
2017-01-06T00:43:51.031Z,-1.87
2017-01-06T00:45:04.645Z,-1.99
2017-01-06T00:46:18.248Z,-1.92
2017-01-06T00:47:31.858Z,-1.94
2017-01-06T00:48:45.388Z,-1.94
2017-01-06T00:49:59.349Z,-2.08
2017-01-06T00:51:12.967Z,-2.11
2017-01-06T00:52:26.955Z,-2.07
2017-01-06T00:53:40.536Z,-2.02
2017-01-06T00:54:54.124Z,-1.99
2017-01-06T00:56:07.833Z,-2
2017-01-06T00:57:21.721Z,-2.13
2017-01-06T00:58:35.394Z,-2
2017-01-06T00:59:48.978Z,-2.1
2017-01-06T01:01:03.581Z,-2.17
2017-01-06T01:02:17.180Z,-2.23
2017-01-06T01:03:30.728Z,-2.18
2017-01-06T01:04:44.286Z,-2.28
2017-01-06T01:05:57.917Z,-2.28
2017-01-06T01:07:11.657Z,-2.22
2017-01-06T01:08:25.195Z,-2.17
2017-01-06T01:09:38.790Z,-2.22
2017-01-06T01:10:54.581Z,-2.33
2017-01-06T01:12:08.287Z,-2.23
2017-01-06T01:13:21.846Z,-2.18
2017-01-06T01:14:35.430Z,-2.29
2017-01-06T01:15:49.033Z,-2.29
2017-01-06T01:17:03.243Z,-2.33
2017-01-06T01:18:16.966Z,-2.17
2017-01-06T01:19:31.520Z,-2.26
2017-01-06T01:20:45.590Z,-2.34
2017-01-06T01:21:59.691Z,-2.29
2017-01-06T01:23:13.773Z,-2.34
2017-01-06T01:24:27.968Z,-2.33
2017-01-06T01:25:42.431Z,-2.36
2017-01-06T01:26:57.284Z,-2.36
2017-01-06T01:28:11.908Z,-2.36
2017-01-06T01:29:25.976Z,-2.39
2017-01-06T01:30:40.261Z,-2.37
2017-01-06T01:31:54.314Z,-2.34
2017-01-06T01:33:08.044Z,-2.36
2017-01-06T01:34:21.719Z,-2.33
2017-01-06T01:35:35.796Z,-2.33
2017-01-06T01:36:49.911Z,-2.4
2017-01-06T01:38:03.929Z,-2.36
2017-01-06T01:39:17.490Z,-2.4
2017-01-06T01:40:31.074Z,-2.45
2017-01-06T01:41:44.960Z,-2.44
2017-01-06T01:42:58.611Z,-2.47
2017-01-06T01:44:14.784Z,-2.5
2017-01-06T01:45:28.388Z,-2.48
2017-01-06T01:46:43.311Z,-2.4
2017-01-06T01:47:57.041Z,-2.47
2017-01-06T01:49:12.493Z,-2.4
2017-01-06T01:50:26.717Z,-2.44
2017-01-06T01:51:40.311Z,-2.44
2017-01-06T01:52:53.905Z,-2.39
2017-01-06T01:54:08.788Z,-2.45
2017-01-06T01:55:22.771Z,-2.32
2017-01-06T01:56:36.870Z,-2.34
2017-01-06T01:57:50.416Z,-2.4
2017-01-06T01:59:04.072Z,-2.5
2017-01-06T02:00:17.683Z,-2.45
2017-01-06T02:01:31.706Z,-2.54
2017-01-06T02:02:45.376Z,-2.55
2017-01-06T02:03:58.920Z,-2.61
2017-01-06T02:05:12.554Z,-2.47
2017-01-06T02:06:26.320Z,-2.52
2017-01-06T02:07:40.007Z,-2.47
2017-01-06T02:08:53.566Z,-2.48
2017-01-06T02:10:07.201Z,-2.45
2017-01-06T02:11:20.764Z,-2.44
2017-01-06T02:12:34.779Z,-2.37
2017-01-06T02:13:48.326Z,-2.36
2017-01-06T02:15:01.988Z,-2.34
2017-01-06T02:16:15.583Z,-2.42
2017-01-06T02:17:29.166Z,-2.42
2017-01-06T02:18:44.273Z,-2.45
2017-01-06T02:19:58.239Z,-2.58
2017-01-06T02:21:11.967Z,-2.55
2017-01-06T02:22:30.560Z,-2.51
2017-01-06T02:23:44.124Z,-2.47
2017-01-06T02:24:57.696Z,-2.57
2017-01-06T02:26:11.289Z,-2.52
2017-01-06T02:27:27.215Z,-2.57
2017-01-06T02:28:41.072Z,-2.51
2017-01-06T02:29:54.632Z,-2.5
2017-01-06T02:31:08.264Z,-2.52
2017-01-06T02:32:21.842Z,-2.62
2017-01-06T02:33:35.429Z,-2.65
2017-01-06T02:34:49.167Z,-2.66
2017-01-06T02:36:04.743Z,-2.73
2017-01-06T02:37:18.328Z,-2.63
2017-01-06T02:38:31.869Z,-2.73
2017-01-06T02:39:45.436Z,-2.65
2017-01-06T02:40:59.019Z,-2.8
2017-01-06T02:42:12.626Z,-2.7
2017-01-06T02:43:26.154Z,-2.73
2017-01-06T02:44:39.731Z,-2.76
2017-01-06T02:45:53.996Z,-2.81
2017-01-06T02:47:07.719Z,-2.76
2017-01-06T02:48:21.252Z,-2.78
2017-01-06T02:49:34.935Z,-2.86
2017-01-06T02:50:48.515Z,-2.78
2017-01-06T02:52:02.137Z,-2.86
2017-01-06T02:53:15.793Z,-2.87
2017-01-06T02:54:29.508Z,-2.91
2017-01-06T02:55:43.084Z,-2.9
2017-01-06T02:56:56.669Z,-2.94
2017-01-06T02:58:10.283Z,-2.83
2017-01-06T02:59:24.016Z,-2.86
2017-01-06T03:00:37.610Z,-2.84
2017-01-06T03:01:51.225Z,-2.89
2017-01-06T03:03:04.869Z,-2.86
2017-01-06T03:04:18.418Z,-2.93
2017-01-06T03:05:32.045Z,-2.99
2017-01-06T03:06:45.600Z,-2.89
2017-01-06T03:08:00.038Z,-3.04
2017-01-06T03:09:14.058Z,-3.08
2017-01-06T03:10:28.953Z,-2.99
2017-01-06T03:11:42.923Z,-3.02
2017-01-06T03:12:56.485Z,-3.08
2017-01-06T03:14:11.916Z,-2.99
2017-01-06T03:15:29.192Z,-3.05
2017-01-06T03:16:45.226Z,-3.04
2017-01-06T03:18:00.691Z,-3.07
2017-01-06T03:19:17.240Z,-3.04
2017-01-06T03:20:33.889Z,-3.08
2017-01-06T03:21:50.500Z,-2.99
2017-01-06T03:23:06.771Z,-3.05
2017-01-06T03:24:21.222Z,-3.05
2017-01-06T03:25:35.195Z,-3.08
2017-01-06T03:26:48.764Z,-3.09
2017-01-06T03:28:02.801Z,-3.05
2017-01-06T03:29:16.783Z,-3.04
2017-01-06T03:30:30.766Z,-2.99
2017-01-06T03:31:44.385Z,-3.02
2017-01-06T03:32:57.983Z,-2.98
2017-01-06T03:34:13.701Z,-3.11
2017-01-06T03:35:28.599Z,-3.02
2017-01-06T03:36:42.157Z,-3.19
2017-01-06T03:37:57.211Z,-3.11
2017-01-06T03:39:10.867Z,-3.08
2017-01-06T03:40:24.880Z,-3.12
2017-01-06T03:41:39.747Z,-3.08
2017-01-06T03:42:53.378Z,-3.09
2017-01-06T03:44:09.668Z,-3.11
2017-01-06T03:45:23.229Z,-3.14
2017-01-06T03:46:36.818Z,-3.37
2017-01-06T03:47:50.732Z,-3.33
2017-01-06T03:49:05.744Z,-3.37
2017-01-06T03:50:19.424Z,-3.37
2017-01-06T03:51:33.031Z,-3.41
2017-01-06T03:52:47.440Z,-3.47
2017-01-06T03:54:01.318Z,-3.46
2017-01-06T03:55:16.427Z,-3.53
2017-01-06T03:56:32.344Z,-3.51
2017-01-06T03:57:46.149Z,-3.51
2017-01-06T03:58:59.716Z,-3.53
2017-01-06T04:00:13.328Z,-3.43
2017-01-06T04:01:26.986Z,-3.47
2017-01-06T04:02:40.606Z,-3.5
2017-01-06T04:03:54.190Z,-3.44
2017-01-06T04:05:07.766Z,-3.55
2017-01-06T04:06:26.404Z,-3.58
2017-01-06T04:07:40.066Z,-3.47
2017-01-06T04:08:53.853Z,-3.55
2017-01-06T04:10:07.921Z,-3.55
2017-01-06T04:11:21.512Z,-3.5
2017-01-06T04:12:35.161Z,-3.51
2017-01-06T04:13:48.793Z,-3.56
2017-01-06T04:15:02.671Z,-3.56
2017-01-06T04:16:16.287Z,-3.59
2017-01-06T04:17:29.869Z,-3.46
2017-01-06T04:19:09.167Z,-3.53
2017-01-06T04:20:24.007Z,-3.58
2017-01-06T04:21:37.626Z,-3.58
2017-01-06T04:22:51.187Z,-3.59
2017-01-06T04:24:04.793Z,-3.55
2017-01-06T04:25:18.547Z,-3.55
2017-01-06T04:26:32.135Z,-3.65
2017-01-06T04:27:45.700Z,-3.64
2017-01-06T04:28:59.322Z,-3.71
2017-01-06T04:30:12.882Z,-3.74
2017-01-06T04:31:26.811Z,-3.65
2017-01-06T04:32:40.407Z,-3.71
2017-01-06T04:33:54.027Z,-3.83
2017-01-06T04:35:07.564Z,-3.74
2017-01-06T04:36:21.174Z,-3.62
2017-01-06T04:37:34.718Z,-3.59
2017-01-06T04:38:48.448Z,-3.69
2017-01-06T04:40:02.063Z,-3.68
2017-01-06T04:41:15.661Z,-3.61
2017-01-06T04:42:29.258Z,-3.68
2017-01-06T04:43:42.923Z,-3.71
2017-01-06T04:44:56.645Z,-3.71
2017-01-06T04:46:10.337Z,-3.83
2017-01-06T04:47:23.976Z,-3.75
2017-01-06T04:48:37.505Z,-3.75
2017-01-06T04:49:51.093Z,-3.8
2017-01-06T04:51:04.680Z,-3.77
2017-01-06T04:52:18.385Z,-3.84
2017-01-06T04:53:32.158Z,-3.64
2017-01-06T04:54:45.795Z,-3.71
2017-01-06T04:55:59.661Z,-3.65
2017-01-06T04:57:13.302Z,-3.75
2017-01-06T04:58:26.877Z,-3.62
2017-01-06T04:59:50.717Z,-3.62
2017-01-06T05:01:06.919Z,-3.65
2017-01-06T05:02:21.773Z,-3.68
2017-01-06T05:03:35.678Z,-3.59
2017-01-06T05:04:49.246Z,-3.61
2017-01-06T05:06:02.835Z,-3.68
2017-01-06T05:07:23.975Z,-3.8
2017-01-06T05:08:37.572Z,-3.64
2017-01-06T05:09:51.309Z,-3.87
2017-01-06T05:11:04.910Z,-3.71
2017-01-06T05:12:18.466Z,-3.61
2017-01-06T05:13:32.697Z,-3.71
2017-01-06T05:14:46.256Z,-3.64
2017-01-06T05:16:00.864Z,-3.66
2017-01-06T05:17:14.412Z,-3.69
2017-01-06T05:18:28.057Z,-3.65
2017-01-06T05:19:41.744Z,-3.66
2017-01-06T05:20:55.396Z,-3.55
2017-01-06T05:22:09.537Z,-3.66
2017-01-06T05:23:23.899Z,-3.64
2017-01-06T05:24:37.531Z,-3.69
2017-01-06T05:25:51.991Z,-3.68
2017-01-06T05:27:07.032Z,-3.66
2017-01-06T05:28:24.874Z,-3.66
2017-01-06T05:29:38.505Z,-3.44
2017-01-06T05:30:53.489Z,-2.84
2017-01-06T05:32:08.551Z,-2.84
2017-01-06T05:33:22.804Z,-2.83
2017-01-06T05:34:37.055Z,-3.05
2017-01-06T05:35:51.254Z,-3.08
2017-01-06T05:37:05.303Z,-3.2
2017-01-06T05:38:21.483Z,-3.3
2017-01-06T05:39:36.435Z,-3.32
2017-01-06T05:40:50.947Z,-3.46
2017-01-06T05:42:05.501Z,-3.43
2017-01-06T05:43:19.907Z,-3.47
2017-01-06T05:44:33.591Z,-3.46
2017-01-06T05:45:47.245Z,-3.55
2017-01-06T05:47:01.023Z,-3.55
2017-01-06T05:48:14.706Z,-3.5
2017-01-06T05:49:28.936Z,-3.51
2017-01-06T05:50:43.411Z,-3.58
2017-01-06T05:51:57.875Z,-3.58
2017-01-06T05:53:13.615Z,-3.65
2017-01-06T05:54:27.375Z,-3.68
2017-01-06T05:55:41.293Z,-3.66
2017-01-06T05:56:58.067Z,-3.64
2017-01-06T05:58:14.345Z,-3.68
2017-01-06T05:59:27.963Z,-3.69
2017-01-06T06:00:44.127Z,-3.78
2017-01-06T06:01:59.616Z,-3.78
2017-01-06T06:03:14.528Z,-3.8
2017-01-06T06:04:30.096Z,-3.83
2017-01-06T06:05:45.180Z,-3.87
2017-01-06T06:06:59.202Z,-3.85
2017-01-06T06:08:13.696Z,-3.81
2017-01-06T06:09:27.907Z,-3.81
2017-01-06T06:10:42.339Z,-3.81
2017-01-06T06:11:56.772Z,-3.74
2017-01-06T06:13:10.373Z,-3.71
2017-01-06T06:14:24.843Z,-3.8
2017-01-06T06:15:38.891Z,-3.71
2017-01-06T06:16:52.494Z,-3.69
2017-01-06T06:18:09.300Z,-3.71
2017-01-06T06:19:22.833Z,-3.81
2017-01-06T06:20:38.035Z,-3.77
2017-01-06T06:21:52.074Z,-3.66
2017-01-06T06:23:06.076Z,-3.78
2017-01-06T06:24:20.513Z,-3.81
2017-01-06T06:25:35.037Z,-3.81
2017-01-06T06:26:49.082Z,-3.83
2017-01-06T06:28:03.100Z,-3.81
2017-01-06T06:29:17.151Z,-3.83
2017-01-06T06:30:31.204Z,-3.66
2017-01-06T06:31:44.777Z,-3.83
2017-01-06T06:32:59.239Z,-3.68
2017-01-06T06:34:13.226Z,-3.81
2017-01-06T06:35:27.305Z,-3.87
2017-01-06T06:36:41.709Z,-3.99
2017-01-06T06:37:55.740Z,-3.78
2017-01-06T06:39:10.547Z,-3.84
2017-01-06T06:40:25.116Z,-3.9
2017-01-06T06:41:39.125Z,-3.88
2017-01-06T06:42:53.656Z,-3.87
2017-01-06T06:44:08.144Z,-3.9
2017-01-06T06:45:22.168Z,-3.9
2017-01-06T06:46:36.752Z,-3.9
2017-01-06T06:48:16.535Z,-4.06
2017-01-06T06:49:30.610Z,-4.33
2017-01-06T06:50:44.219Z,-4.49
2017-01-06T06:51:57.789Z,-4.7
2017-01-06T06:53:11.862Z,-4.8
2017-01-06T06:54:25.440Z,-4.8
2017-01-06T06:55:39.535Z,-4.83
2017-01-06T06:56:53.156Z,-4.88
2017-01-06T06:58:08.060Z,-4.94
2017-01-06T06:59:21.750Z,-4.91
2017-01-06T07:00:35.863Z,-4.9
2017-01-06T07:01:49.908Z,-4.9
2017-01-06T07:03:03.979Z,-4.83
2017-01-06T07:04:19.294Z,-4.84
2017-01-06T07:05:32.902Z,-4.9
2017-01-06T07:06:47.199Z,-4.8
2017-01-06T07:08:01.250Z,-4.81
2017-01-06T07:09:15.716Z,-4.81
2017-01-06T07:10:29.725Z,-4.88
2017-01-06T07:11:43.858Z,-4.77
2017-01-06T07:12:58.146Z,-4.76
2017-01-06T07:14:12.756Z,-4.79
2017-01-06T07:15:26.342Z,-4.79
2017-01-06T07:16:42.088Z,-4.49
2017-01-06T07:17:55.755Z,-4.51
2017-01-06T07:19:10.122Z,-4.56
2017-01-06T07:20:23.732Z,-4.59
2017-01-06T07:21:38.285Z,-4.59
2017-01-06T07:22:51.907Z,-4.69
2017-01-06T07:24:05.924Z,-4.74
2017-01-06T07:25:20.908Z,-4.53
2017-01-06T07:26:34.925Z,-4.56
2017-01-06T07:27:49.813Z,-4.58
2017-01-06T07:29:04.312Z,-4.61
2017-01-06T07:30:18.372Z,-4.49
2017-01-06T07:31:32.500Z,-4.47
2017-01-06T07:32:46.950Z,-4.49
2017-01-06T07:34:01.387Z,-4.58
2017-01-06T07:35:17.595Z,-4.49
2017-01-06T07:36:31.189Z,-4.56
2017-01-06T07:37:45.810Z,-4.51
2017-01-06T07:38:59.635Z,-4.51
2017-01-06T07:40:13.650Z,-4.65
2017-01-06T07:41:27.670Z,-4.74
2017-01-06T07:42:42.177Z,-4.59
2017-01-06T07:43:55.783Z,-4.53
2017-01-06T07:45:10.785Z,-4.56
2017-01-06T07:46:25.263Z,-4.52
2017-01-06T07:47:39.435Z,-4.51
2017-01-06T07:48:53.132Z,-4.63
2017-01-06T07:50:07.593Z,-4.49
2017-01-06T07:51:22.043Z,-4.59
2017-01-06T07:52:36.551Z,-4.55
2017-01-06T07:53:51.531Z,-4.55
2017-01-06T07:55:05.668Z,-4.45
2017-01-06T07:56:20.652Z,-4.52
2017-01-06T07:57:35.667Z,-4.55
2017-01-06T07:58:52.415Z,-4.59
2017-01-06T08:00:07.390Z,-4.44
2017-01-06T08:01:21.490Z,-4.56
2017-01-06T08:02:35.511Z,-4.45
2017-01-06T08:03:49.627Z,-4.45
2017-01-06T08:05:03.644Z,-4.41
2017-01-06T08:06:17.260Z,-4.41
2017-01-06T08:07:30.868Z,-4.47
2017-01-06T08:08:44.536Z,-4.4
2017-01-06T08:09:59.053Z,-4.4
2017-01-06T08:11:12.623Z,-4.33
2017-01-06T08:12:27.200Z,-4.27
2017-01-06T08:13:41.703Z,-4.34
2017-01-06T08:14:55.802Z,-4.37
2017-01-06T08:16:09.855Z,-4.41
2017-01-06T08:17:24.302Z,-4.33
2017-01-06T08:18:38.842Z,-4.33
2017-01-06T08:19:53.376Z,-4.22
2017-01-06T08:21:08.178Z,-4.24
2017-01-06T08:22:23.159Z,-4.22
2017-01-06T08:23:38.077Z,-4.13
2017-01-06T08:24:52.611Z,-4.16
2017-01-06T08:26:06.626Z,-4.19
2017-01-06T08:27:20.628Z,-4.19
2017-01-06T08:28:34.266Z,-4.17
2017-01-06T08:29:50.259Z,-4.12
2017-01-06T08:31:03.891Z,-4.06
2017-01-06T08:32:18.790Z,-3.99
2017-01-06T08:33:32.881Z,-4.06
2017-01-06T08:34:46.979Z,-3.91
2017-01-06T08:36:00.699Z,-3.98
2017-01-06T08:37:14.456Z,-3.91
2017-01-06T08:38:28.479Z,-3.88
2017-01-06T08:39:43.027Z,-3.78
2017-01-06T08:40:58.431Z,-3.84
2017-01-06T08:42:12.967Z,-3.84
2017-01-06T08:43:27.961Z,-3.91
2017-01-06T08:44:41.554Z,-3.85
2017-01-06T08:45:56.127Z,-3.91
2017-01-06T08:47:10.591Z,-3.8
2017-01-06T08:48:24.700Z,-3.83
2017-01-06T08:49:39.588Z,-3.87
2017-01-06T08:50:54.899Z,-3.83
2017-01-06T08:52:10.854Z,-3.83
2017-01-06T08:53:25.743Z,-3.83
2017-01-06T08:54:40.668Z,-3.71
2017-01-06T08:55:54.829Z,-3.64
2017-01-06T08:57:08.678Z,-3.8
2017-01-06T08:58:22.296Z,-3.83
2017-01-06T08:59:36.338Z,-3.8
2017-01-06T09:00:51.031Z,-3.71
2017-01-06T09:02:05.502Z,-3.68
2017-01-06T09:03:19.987Z,-3.68
2017-01-06T09:04:34.929Z,-3.68
2017-01-06T09:05:49.609Z,-3.62
2017-01-06T09:07:03.787Z,-3.66
2017-01-06T09:08:17.926Z,-3.51
2017-01-06T09:09:31.517Z,-3.48
2017-01-06T09:10:46.876Z,-3.5
2017-01-06T09:12:01.003Z,-3.41
2017-01-06T09:13:14.689Z,-3.36
2017-01-06T09:14:29.166Z,-3.25
2017-01-06T09:15:44.066Z,-3.2
2017-01-06T09:16:58.275Z,-3.09
2017-01-06T09:18:12.294Z,-2.99
2017-01-06T09:19:26.400Z,-2.98
2017-01-06T09:20:41.335Z,-2.99
2017-01-06T09:21:57.228Z,-2.96
2017-01-06T09:23:10.934Z,-2.86
2017-01-06T09:24:25.472Z,-2.94
2017-01-06T09:25:43.330Z,-2.81
2017-01-06T09:26:58.482Z,-2.83
2017-01-06T09:28:12.964Z,-2.8
2017-01-06T09:29:27.299Z,-2.78
2017-01-06T09:30:42.416Z,-3.05
2017-01-06T09:31:57.514Z,-3.14
2017-01-06T09:33:12.067Z,-2.99
2017-01-06T09:34:26.688Z,-3.04
2017-01-06T09:35:43.006Z,-3.17
2017-01-06T09:36:59.020Z,-3.12
2017-01-06T09:38:14.784Z,-3.17
2017-01-06T09:39:30.240Z,-2.99
2017-01-06T09:40:44.209Z,-3.2
2017-01-06T09:41:59.779Z,-2.99
2017-01-06T09:43:15.176Z,-2.99
2017-01-06T09:44:29.732Z,-2.99
2017-01-06T09:45:44.361Z,-3.04
2017-01-06T09:46:58.120Z,-2.94
2017-01-06T09:48:12.588Z,-2.86
2017-01-06T09:49:27.087Z,-2.94
2017-01-06T09:50:41.608Z,-3.02
2017-01-06T09:51:58.128Z,-3.23
2017-01-06T09:53:13.025Z,-3.2
2017-01-06T09:54:27.967Z,-3.17
2017-01-06T09:55:42.882Z,-3.17
2017-01-06T09:56:57.430Z,-3.23
2017-01-06T09:58:12.729Z,-3.25
2017-01-06T09:59:26.452Z,-3.19
2017-01-06T10:00:41.774Z,-3.26
2017-01-06T10:01:57.129Z,-3.15
2017-01-06T10:03:11.683Z,-3.11
2017-01-06T10:04:26.356Z,-3.19
2017-01-06T10:05:40.492Z,-2.98
2017-01-06T10:06:55.476Z,-2.99
2017-01-06T10:08:10.037Z,-2.89
2017-01-06T10:09:26.061Z,-2.87
2017-01-06T10:10:40.236Z,-2.9
2017-01-06T10:11:55.537Z,-2.76
2017-01-06T10:13:10.058Z,-2.78
2017-01-06T10:14:25.504Z,-2.78
2017-01-06T10:15:40.049Z,-2.78
2017-01-06T10:16:55.958Z,-2.83
2017-01-06T10:18:11.165Z,-2.78
2017-01-06T10:19:26.758Z,-2.83
2017-01-06T10:20:42.379Z,-2.68
2017-01-06T10:21:56.774Z,-2.55
2017-01-06T10:23:10.934Z,-2.63
2017-01-06T10:24:25.160Z,-2.62
2017-01-06T10:25:39.170Z,-2.68
2017-01-06T10:26:53.654Z,-2.66
2017-01-06T10:28:08.341Z,-2.58
2017-01-06T10:29:23.261Z,-2.55
2017-01-06T10:30:37.426Z,-2.51
2017-01-06T10:31:52.192Z,-2.55
2017-01-06T10:33:06.365Z,-2.54
2017-01-06T10:34:20.902Z,-2.47
2017-01-06T10:35:34.529Z,-2.47
2017-01-06T10:36:48.131Z,-2.4
2017-01-06T10:38:03.815Z,-2.33
2017-01-06T10:39:17.905Z,-2.29
2017-01-06T10:40:32.392Z,-2.36
2017-01-06T10:41:46.415Z,-2.4
2017-01-06T10:43:00.487Z,-2.48
2017-01-06T10:44:16.610Z,-2.44
2017-01-06T10:45:32.104Z,-2.57
2017-01-06T10:46:47.527Z,-2.61
2017-01-06T10:48:03.570Z,-2.76
2017-01-06T10:49:17.187Z,-2.8
2017-01-06T10:50:31.295Z,-2.66
2017-01-06T10:51:45.320Z,-2.63
2017-01-06T10:53:00.836Z,-2.69
2017-01-06T10:54:15.141Z,-2.63
2017-01-06T10:55:29.172Z,-2.48
2017-01-06T10:56:43.290Z,-2.54
2017-01-06T10:57:58.687Z,-2.54
2017-01-06T10:59:27.563Z,-2.48
2017-01-06T11:00:41.490Z,-2.45
2017-01-06T11:01:56.272Z,-2.5
2017-01-06T11:03:10.431Z,-2.33
2017-01-06T11:04:25.062Z,-2.25
2017-01-06T11:05:40.091Z,-2.18
2017-01-06T11:06:54.149Z,-2.15
2017-01-06T11:08:10.134Z,-2.15
2017-01-06T11:09:25.583Z,-2.18
2017-01-06T11:10:40.655Z,-2.13
2017-01-06T11:11:55.164Z,-2.13
2017-01-06T11:13:09.823Z,-2.15
2017-01-06T11:14:23.857Z,-2.04
2017-01-06T11:16:04.960Z,-2.11
2017-01-06T11:17:20.517Z,-2.04
2017-01-06T11:18:34.717Z,-2.1
2017-01-06T11:20:08.456Z,-2.04
2017-01-06T11:21:22.529Z,-2
2017-01-06T11:22:37.425Z,-2.14
2017-01-06T11:23:51.710Z,-2.14
2017-01-06T11:25:06.593Z,-2.11
2017-01-06T11:26:21.119Z,-2.17
2017-01-06T11:27:37.367Z,-2.1
2017-01-06T11:28:51.115Z,-2.11
2017-01-06T11:30:05.710Z,-2
2017-01-06T11:31:20.325Z,-1.92
2017-01-06T11:32:35.821Z,-1.99
2017-01-06T11:33:49.998Z,-2.08
2017-01-06T11:35:03.678Z,-2.14
2017-01-06T11:36:17.423Z,-2.04
2017-01-06T11:37:32.325Z,-2.07
2017-01-06T11:38:48.011Z,-2.11
2017-01-06T11:40:02.114Z,-1.94
2017-01-06T11:41:15.806Z,-1.92
2017-01-06T11:42:29.967Z,-1.92
2017-01-06T11:43:44.871Z,-1.89
2017-01-06T11:44:59.605Z,-1.76
2017-01-06T11:46:13.666Z,-1.92
2017-01-06T11:47:27.758Z,-1.84
2017-01-06T11:48:42.464Z,-1.78
2017-01-06T11:49:57.206Z,-1.74
2017-01-06T11:51:11.334Z,-1.75
2017-01-06T11:52:26.353Z,-1.74
2017-01-06T11:53:41.312Z,-1.76
2017-01-06T11:54:56.542Z,-1.74
2017-01-06T11:56:11.585Z,-1.82
2017-01-06T11:57:27.131Z,-1.75
2017-01-06T11:58:41.640Z,-1.68
2017-01-06T11:59:55.850Z,-1.61
2017-01-06T12:01:11.135Z,-1.56
2017-01-06T12:02:25.195Z,-1.68
2017-01-06T12:03:40.880Z,-1.71
2017-01-06T12:04:55.984Z,-1.64
2017-01-06T12:06:10.066Z,-1.56
2017-01-06T12:07:24.532Z,-1.66
2017-01-06T12:08:38.641Z,-1.54
2017-01-06T12:09:53.524Z,-1.46
2017-01-06T12:11:07.771Z,-1.4
2017-01-06T12:12:21.831Z,-1.4
2017-01-06T12:13:36.002Z,-1.38
2017-01-06T12:14:50.527Z,-1.5
2017-01-06T12:16:04.699Z,-1.46
2017-01-06T12:17:19.246Z,-1.32
2017-01-06T12:18:34.237Z,-1.42
2017-01-06T12:19:48.074Z,-1.36
2017-01-06T12:21:02.166Z,-1.42
2017-01-06T12:22:17.096Z,-1.38
2017-01-06T12:23:31.150Z,-1.27
2017-01-06T12:24:46.433Z,-1.19
2017-01-06T12:26:00.450Z,-1.18
2017-01-06T12:27:14.122Z,-1.21
2017-01-06T12:28:28.225Z,-1.17
2017-01-06T12:29:42.735Z,-1.09
2017-01-06T12:30:57.929Z,-1.12
2017-01-06T12:32:12.516Z,-1.14
2017-01-06T12:33:26.685Z,-1.11
2017-01-06T12:34:40.913Z,-1.14
2017-01-06T12:35:56.088Z,-1.14
2017-01-06T12:37:11.040Z,-1.14
2017-01-06T12:38:25.805Z,-1.18
2017-01-06T12:39:41.029Z,-1.15
2017-01-06T12:40:57.621Z,-1.09
2017-01-06T12:42:12.925Z,-1.12
2017-01-06T12:43:27.990Z,-1.09
2017-01-06T12:44:46.728Z,-1.21
2017-01-06T12:46:01.425Z,-1.19
2017-01-06T12:47:16.086Z,-1.15
2017-01-06T12:48:31.901Z,-1.18
2017-01-06T12:49:48.276Z,-1.14
2017-01-06T12:51:03.584Z,-1.17
2017-01-06T12:52:19.272Z,-1.18
2017-01-06T12:53:33.773Z,-1.19
2017-01-06T12:54:49.289Z,-1.18
2017-01-06T12:56:04.741Z,-1.19
2017-01-06T12:57:19.009Z,-1.15
2017-01-06T12:58:33.919Z,-1.17
2017-01-06T12:59:47.582Z,-1.09
2017-01-06T13:01:01.657Z,-1
2017-01-06T13:02:16.551Z,-0.99
2017-01-06T13:03:30.384Z,-1.14
2017-01-06T13:04:44.117Z,-1.17
2017-01-06T13:05:59.240Z,-1.09
2017-01-06T13:07:14.420Z,-1.18
2017-01-06T13:08:28.923Z,-0.97
2017-01-06T13:11:14.503Z,-0.94
2017-01-06T13:12:28.121Z,-0.96
2017-01-06T13:13:43.012Z,-0.82
2017-01-06T13:14:57.543Z,-0.91
2017-01-06T13:16:13.444Z,-0.84
2017-01-06T13:17:28.370Z,-0.94
2017-01-06T13:18:43.747Z,-1
2017-01-06T13:19:58.844Z,-0.97
2017-01-06T13:21:14.377Z,-1.09
2017-01-06T13:22:29.013Z,-1.03
2017-01-06T13:23:43.513Z,-1.11
2017-01-06T13:24:58.432Z,-1.09
2017-01-06T13:26:13.435Z,-1.22
2017-01-06T13:27:28.712Z,-1.22
2017-01-06T13:28:42.791Z,-1.18
2017-01-06T13:29:58.299Z,-1.17
2017-01-06T13:31:28.706Z,-1.18
2017-01-06T13:32:43.659Z,-1.15
2017-01-06T13:33:58.023Z,-1.06
2017-01-06T13:35:12.739Z,-1.14
2017-01-06T13:36:29.227Z,-1.21
2017-01-06T13:37:44.762Z,-1.15
2017-01-06T13:39:01.021Z,-1.33
2017-01-06T13:40:16.089Z,-1.27
2017-01-06T13:41:30.142Z,-1.33
2017-01-06T13:42:43.881Z,-1.21
2017-01-06T13:43:58.395Z,-1.12
2017-01-06T13:45:14.260Z,-1.24
2017-01-06T13:46:28.628Z,-1.32
2017-01-06T13:47:42.347Z,-1.4
2017-01-06T13:48:56.876Z,-1.45
2017-01-06T13:50:12.640Z,-1.39
2017-01-06T13:51:28.489Z,-1.5
2017-01-06T13:52:43.022Z,-1.38
2017-01-06T13:53:58.047Z,-1.38
2017-01-06T13:55:13.196Z,-1.29
2017-01-06T13:56:29.032Z,-1.18
2017-01-06T13:57:44.444Z,-1.22
2017-01-06T13:59:00.832Z,-1.17
2017-01-06T14:00:15.879Z,-1.07
2017-01-06T14:01:31.484Z,-1.06
2017-01-06T14:02:49.626Z,-1.19
2017-01-06T14:04:04.817Z,-1.03
2017-01-06T14:05:22.323Z,-1.09
2017-01-06T14:06:38.071Z,-1.03
2017-01-06T14:07:52.915Z,-0.97
2017-01-06T14:09:08.227Z,-0.97
2017-01-06T14:10:23.646Z,-0.82
2017-01-06T14:11:38.274Z,-0.81
2017-01-06T14:12:56.211Z,-0.81
2017-01-06T14:14:12.147Z,-0.8
2017-01-06T14:15:41.262Z,-0.93
2017-01-06T14:16:56.742Z,-0.99
2017-01-06T14:18:12.008Z,-1.07
2017-01-06T14:19:26.226Z,-1.04
2017-01-06T14:20:41.738Z,-1.17
2017-01-06T14:21:58.236Z,-1.11
2017-01-06T14:23:13.515Z,-0.96
2017-01-06T14:24:27.802Z,-0.93
2017-01-06T14:25:43.766Z,-1.14
2017-01-06T14:26:59.709Z,-0.97
2017-01-06T14:28:15.158Z,-1.14
2017-01-06T14:29:30.851Z,-1.06
2017-01-06T14:30:46.419Z,-1.07
2017-01-06T14:32:01.438Z,-1.06
2017-01-06T14:33:17.003Z,-0.91
2017-01-06T14:34:32.183Z,-1.18
2017-01-06T14:35:48.645Z,-1.18
2017-01-06T14:37:03.926Z,-1.18
2017-01-06T14:38:19.850Z,-1.15
2017-01-06T14:39:33.559Z,-1.15
2017-01-06T14:40:48.807Z,-1.07
2017-01-06T14:42:02.508Z,-1.12
2017-01-06T14:43:17.300Z,-1.12
2017-01-06T14:44:33.218Z,-1.07
2017-01-06T14:45:49.714Z,-1.07
2017-01-06T14:47:05.797Z,-1.06
2017-01-06T14:48:21.434Z,-1.06
2017-01-06T14:49:37.198Z,-1.11
2017-01-06T14:50:52.347Z,-1.01
2017-01-06T14:52:07.254Z,-1.18
2017-01-06T14:53:22.211Z,-1.14
2017-01-06T14:54:37.843Z,-1.15
2017-01-06T14:55:53.535Z,-1.18
2017-01-06T14:57:09.055Z,-1.22
2017-01-06T14:58:25.428Z,-1.3
2017-01-06T14:59:40.202Z,-1.4
2017-01-06T15:00:54.455Z,-1.45
2017-01-06T15:02:09.170Z,-1.57
2017-01-06T15:03:24.439Z,-1.36
2017-01-06T15:04:38.503Z,-1.45
2017-01-06T15:05:52.748Z,-1.46
2017-01-06T15:07:07.102Z,-1.45
2017-01-06T15:08:21.290Z,-1.33
2017-01-06T15:09:35.398Z,-1.32
2017-01-06T15:10:50.128Z,-1.46
2017-01-06T15:12:04.267Z,-1.35
2017-01-06T15:13:19.684Z,-1.43
2017-01-06T15:14:33.782Z,-1.51
2017-01-06T15:15:47.809Z,-1.56
2017-01-06T15:17:01.678Z,-1.64
2017-01-06T15:18:16.049Z,-1.56
2017-01-06T15:19:30.954Z,-1.68
2017-01-06T15:20:47.063Z,-1.75
2017-01-06T15:22:02.516Z,-1.78
2017-01-06T15:23:17.576Z,-1.72
2017-01-06T15:24:32.195Z,-1.75
2017-01-06T15:25:47.565Z,-1.84
2017-01-06T15:27:02.937Z,-1.86
2017-01-06T15:28:17.080Z,-1.78
2017-01-06T15:29:31.653Z,-1.78
2017-01-06T15:30:45.863Z,-1.72
2017-01-06T15:32:00.868Z,-1.76
2017-01-06T15:33:15.424Z,-1.76
2017-01-06T15:34:30.813Z,-1.76
2017-01-06T15:35:44.624Z,-1.72
2017-01-06T15:36:59.287Z,-1.79
2017-01-06T15:38:14.665Z,-1.75
2017-01-06T15:39:29.541Z,-1.86
2017-01-06T15:40:43.799Z,-1.84
2017-01-06T15:41:59.398Z,-1.86
2017-01-06T15:43:14.883Z,-1.87
2017-01-06T15:44:30.162Z,-1.87
2017-01-06T15:45:45.388Z,-1.87
2017-01-06T15:47:00.589Z,-1.87
2017-01-06T15:48:15.771Z,-1.9
2017-01-06T15:49:30.075Z,-1.89
2017-01-06T15:50:44.983Z,-2.02
2017-01-06T15:51:59.832Z,-2.11
2017-01-06T15:53:14.431Z,-2.1
2017-01-06T15:54:29.576Z,-2.22
2017-01-06T15:55:45.851Z,-2.22
2017-01-06T15:57:01.982Z,-2.29
2017-01-06T15:58:16.636Z,-2.29
2017-01-06T15:59:31.852Z,-2.36
2017-01-06T16:00:45.677Z,-2.33
2017-01-06T16:02:00.780Z,-2.23
2017-01-06T16:03:17.131Z,-2.36
2017-01-06T16:04:33.668Z,-2.4
2017-01-06T16:05:48.824Z,-2.32
2017-01-06T16:07:04.473Z,-2.42
2017-01-06T16:08:19.763Z,-2.45
2017-01-06T16:09:33.628Z,-2.47
2017-01-06T16:10:47.844Z,-2.42
2017-01-06T16:12:01.696Z,-2.47